createdAt,value
2023-01-13T02:45:59.051Z,88189.00
2023-01-13T02:46:58.979Z,88191.00
2023-01-13T02:47:58.965Z,88183.00
2023-01-13T07:19:53.348Z,88165.00
2023-01-13T07:20:53.616Z,88159.00
2023-01-13T07:21:51.239Z,88159.00
2023-01-13T07:22:51.140Z,88161.00
2023-01-13T07:23:51.152Z,88159.00
2023-01-13T07:24:51.093Z,88159.00
2023-01-13T07:25:51.054Z,88163.00
2023-01-13T07:26:51.011Z,88167.00
2023-01-13T07:27:51.002Z,88157.00
2023-01-13T07:28:51.006Z,88169.00
2023-01-13T07:29:50.916Z,88163.00
2023-01-13T07:30:50.881Z,88167.00
2023-01-13T07:31:50.934Z,88163.00
2023-01-13T07:32:50.801Z,88165.00
2023-01-13T07:33:50.782Z,88161.00
2023-01-13T07:34:50.748Z,88159.00
2023-01-13T07:35:50.711Z,88163.00
2023-01-13T07:36:50.658Z,88161.00
2023-01-13T07:37:50.657Z,88165.00
2023-01-13T07:38:50.649Z,88165.00
2023-01-13T07:39:50.658Z,88165.00
2023-01-13T07:40:50.591Z,88167.00
2023-01-13T07:41:50.498Z,88175.00
2023-01-13T07:42:50.459Z,88165.00
2023-01-13T07:43:52.017Z,88169.00
2023-01-13T07:44:50.583Z,88171.00
2023-01-13T07:45:50.400Z,88165.00
2023-01-13T07:46:50.399Z,88177.00
2023-01-13T07:47:50.313Z,88177.00
2023-01-13T07:48:50.272Z,88163.00
2023-01-13T07:49:50.351Z,88175.00
2023-01-13T08:03:50.073Z,88165.00
2023-01-13T08:04:50.096Z,88161.00
2023-01-13T08:05:50.034Z,88165.00
2023-01-13T08:06:50.004Z,88161.00
2023-01-13T08:07:50.036Z,88155.00
2023-01-13T08:08:49.958Z,88157.00
2023-01-13T08:09:49.958Z,88151.00
2023-01-13T08:10:49.906Z,88159.00
2023-01-13T08:11:49.899Z,88151.00
2023-01-13T08:12:53.085Z,88144.00
2023-01-13T08:13:50.874Z,88147.00
2023-01-13T08:14:49.820Z,88147.00
2023-01-13T08:15:49.806Z,88153.00
2023-01-13T08:16:49.764Z,88157.00
2023-01-13T08:17:49.698Z,88163.00
2023-01-13T08:18:49.681Z,88161.00
2023-01-13T08:19:49.885Z,88167.00
2023-01-13T08:20:49.674Z,88169.00
2023-01-13T08:21:49.576Z,88165.00
2023-01-13T08:22:49.568Z,88169.00
2023-01-13T08:23:49.542Z,88173.00
2023-01-13T08:24:49.517Z,88169.00
2023-01-13T08:25:49.460Z,88159.00
2023-01-13T08:26:49.429Z,88161.00
2023-01-13T08:27:49.646Z,88173.00
2023-01-13T08:28:51.740Z,88167.00
2023-01-13T08:29:51.773Z,88171.00
2023-01-13T08:32:49.881Z,88173.00
2023-01-13T08:33:49.679Z,88173.00
2023-01-13T08:34:49.709Z,88177.00
2023-01-13T08:35:49.489Z,88173.00
2023-01-13T08:36:49.284Z,88177.00
2023-01-13T08:37:49.252Z,88183.00
2023-01-13T08:38:49.497Z,88183.00
2023-01-13T08:39:49.354Z,88179.00
2023-01-13T08:40:49.234Z,88177.00
2023-01-13T08:41:49.232Z,88189.00
2023-01-13T08:42:49.228Z,88175.00
2023-01-13T08:43:49.188Z,88173.00
2023-01-13T08:44:49.144Z,88181.00
2023-01-13T08:45:49.185Z,88183.00
2023-01-13T08:46:49.084Z,88187.00
2023-01-13T08:47:49.050Z,88187.00
2023-01-13T08:48:48.998Z,88189.00
2023-01-13T08:49:48.967Z,88191.00
2023-01-13T08:50:48.953Z,88183.00
2023-01-13T11:16:55.830Z,88091.00
2023-01-13T11:18:53.724Z,88089.00
2023-01-13T11:19:54.052Z,88089.00
2023-01-13T11:25:58.486Z,88081.00
2023-01-13T11:26:51.500Z,88081.00
2023-01-13T11:27:55.112Z,88083.00
2023-01-13T11:30:02.799Z,88081.00
2023-01-13T11:30:51.666Z,88083.00
2023-01-13T11:38:54.079Z,88081.00
2023-01-13T11:42:54.771Z,88083.00
2023-01-13T11:47:55.932Z,88067.00
2023-01-13T11:49:55.573Z,88063.00
2023-01-13T11:51:55.554Z,88061.00
2023-01-13T11:56:56.171Z,88059.00
2023-01-13T12:03:13.201Z,88053.00
2023-01-13T12:04:17.499Z,88049.00
2023-01-13T12:06:14.128Z,88049.00
2023-01-13T12:07:16.805Z,88051.00
2023-01-13T12:09:22.089Z,88045.00
2023-01-13T12:10:22.440Z,88045.00
2023-01-13T12:11:21.583Z,88042.00
2023-01-13T12:12:21.614Z,88044.00
2023-01-13T12:13:22.646Z,88044.00
2023-01-13T12:14:21.459Z,88042.00
2023-01-13T12:15:21.486Z,88047.00
2023-01-13T12:16:21.650Z,88044.00
2023-01-13T12:17:21.418Z,88039.00
2023-01-13T12:18:21.379Z,88039.00
2023-01-13T12:19:21.390Z,88036.00
2023-01-13T12:20:21.205Z,88044.00
2023-01-13T12:21:21.156Z,88045.00
2023-01-13T12:22:21.536Z,88042.00
2023-01-13T12:23:21.097Z,88036.00
2023-01-13T12:24:21.058Z,88036.00
2023-01-13T12:25:21.071Z,88030.00
2023-01-13T12:26:20.985Z,88034.00
2023-01-13T12:27:20.921Z,88032.00
2023-01-13T12:28:20.930Z,88028.00
2023-01-13T12:29:20.838Z,88028.00
2023-01-13T12:30:20.799Z,88030.00
2023-01-13T12:31:20.820Z,88032.00
2023-01-13T12:32:20.697Z,88034.00
2023-01-13T12:33:20.652Z,88034.00
2023-01-13T12:34:20.600Z,88030.00
2023-01-13T12:35:20.562Z,88030.00
2023-01-13T12:36:20.467Z,88030.00
2023-01-13T12:37:20.445Z,88030.00
2023-01-13T12:38:20.419Z,88020.00
2023-01-13T12:39:20.273Z,88018.00
2023-01-13T12:40:20.236Z,88012.00
2023-01-13T12:41:20.164Z,88018.00
2023-01-13T12:42:20.089Z,88020.00
2023-01-13T12:43:20.039Z,88024.00
2023-01-13T12:44:19.939Z,88024.00
2023-01-13T12:45:19.897Z,88020.00
2023-01-13T12:46:19.849Z,88024.00
2023-01-13T12:47:19.762Z,88024.00
2023-01-13T12:48:19.710Z,88016.00
2023-01-13T12:49:19.703Z,88010.00
2023-01-13T12:50:19.626Z,88014.00
2023-01-13T12:51:19.530Z,88012.00
2023-01-13T12:52:19.488Z,88012.00
2023-01-13T12:53:19.405Z,88014.00
2023-01-13T12:54:19.340Z,88016.00
2023-01-13T12:55:19.305Z,88016.00
2023-01-13T12:56:19.253Z,88020.00
2023-01-13T12:57:19.168Z,88016.00
2023-01-13T12:58:19.181Z,88012.00
2023-01-13T12:59:19.127Z,88014.00
2023-01-13T13:00:19.067Z,88010.00
2023-01-13T13:01:19.070Z,88012.00
2023-01-13T14:28:15.096Z,88071.00
2023-01-13T14:29:15.105Z,88069.00
2023-01-13T14:30:15.052Z,88067.00
2023-01-13T14:31:14.997Z,88067.00
2023-01-13T14:32:14.935Z,88069.00
2023-01-13T14:33:14.882Z,88069.00
2023-01-13T14:34:31.207Z,88073.00
2023-01-13T14:35:15.793Z,88077.00
2023-01-13T14:36:14.776Z,88077.00
2023-01-13T14:37:14.777Z,88077.00
2023-01-13T14:38:14.708Z,88079.00
2023-01-13T14:39:14.661Z,88073.00
2023-01-13T14:40:14.620Z,88071.00
2023-01-13T14:41:14.567Z,88067.00
2023-01-13T14:42:14.531Z,88063.00
2023-01-13T14:43:14.524Z,88061.00
2023-01-13T14:44:14.468Z,88055.00
2023-01-13T14:45:14.440Z,88055.00
2023-01-13T14:46:14.435Z,88055.00
2023-01-13T14:47:14.345Z,88057.00
2023-01-13T14:48:14.321Z,88059.00
2023-01-13T14:49:14.329Z,88061.00
2023-01-13T14:50:14.267Z,88065.00
2023-01-13T14:51:14.223Z,88065.00
2023-01-13T14:52:14.180Z,88069.00
2023-01-13T14:53:14.154Z,88075.00
2023-01-13T14:54:14.123Z,88075.00
2023-01-13T14:55:14.093Z,88079.00
2023-01-13T14:56:14.051Z,88075.00
2023-01-13T14:57:14.012Z,88077.00
2023-01-13T14:58:13.979Z,88077.00
2023-01-13T14:59:13.938Z,88075.00
2023-01-13T15:00:13.916Z,88067.00
2023-01-13T15:01:13.958Z,88063.00
2023-01-13T15:02:13.837Z,88057.00
2023-01-13T15:03:13.798Z,88051.00
2023-01-13T15:04:13.752Z,88051.00
2023-01-13T15:05:13.744Z,88049.00
2023-01-13T15:06:13.679Z,88047.00
2023-01-13T15:07:13.666Z,88049.00
2023-01-13T15:08:13.631Z,88051.00
2023-01-13T15:09:13.570Z,88053.00
2023-01-13T15:10:13.542Z,88055.00
2023-01-13T15:11:13.567Z,88055.00
2023-01-13T15:12:13.468Z,88053.00
2023-01-13T15:13:13.436Z,88051.00
2023-01-13T15:14:13.398Z,88055.00
2023-01-13T15:15:13.362Z,88053.00
2023-01-13T15:16:13.388Z,88051.00
2023-01-13T15:17:13.310Z,88051.00
2023-01-13T15:18:13.277Z,88049.00
2023-01-13T15:19:13.234Z,88051.00
2023-01-13T15:20:13.222Z,88053.00
2023-01-13T15:21:13.162Z,88051.00
2023-01-13T15:22:13.132Z,88057.00
2023-01-13T15:23:13.129Z,88063.00
2023-01-13T15:24:13.073Z,88063.00
2023-01-13T15:25:13.037Z,88065.00
2023-01-13T15:26:12.999Z,88069.00
2023-01-13T15:27:12.958Z,88069.00
2023-01-13T15:28:12.929Z,88073.00
2023-01-13T15:29:12.883Z,88069.00
2023-01-13T15:30:12.836Z,88069.00
2023-01-13T15:31:12.827Z,88067.00
2023-01-13T15:32:12.755Z,88065.00
2023-01-13T15:33:12.713Z,88063.00
2023-01-13T15:34:12.683Z,88057.00
2023-01-13T15:35:14.155Z,88051.00
2023-01-13T15:36:12.600Z,88047.00
2023-01-13T15:37:12.563Z,88044.00
2023-01-13T15:38:12.524Z,88042.00
2023-01-13T15:39:12.501Z,88039.00
2023-01-13T15:40:12.474Z,88039.00
2023-01-13T15:41:13.877Z,88042.00
2023-01-13T15:42:12.400Z,88049.00
2023-01-13T15:43:12.400Z,88047.00
2023-01-13T15:44:12.346Z,88047.00
2023-01-13T15:45:12.305Z,88051.00
2023-01-13T15:46:12.324Z,88053.00
2023-01-13T15:47:13.892Z,88053.00
2023-01-13T15:48:12.204Z,88057.00
2023-01-13T15:49:12.171Z,88059.00
2023-01-13T15:50:12.130Z,88063.00
2023-01-13T15:51:12.091Z,88067.00
2023-01-13T15:52:12.045Z,88069.00
2023-01-13T15:53:14.256Z,88075.00
2023-01-13T15:54:11.965Z,88079.00
2023-01-13T15:55:11.932Z,88085.00
2023-01-13T15:56:11.879Z,88087.00
2023-01-13T15:57:11.850Z,88092.00
2023-01-13T15:58:11.818Z,88096.00
2023-01-13T15:59:11.791Z,88100.00
2023-01-13T16:00:11.730Z,88104.00
2023-01-13T16:01:11.771Z,88106.00
2023-01-13T16:02:11.656Z,88120.00
2023-01-13T16:03:11.701Z,88122.00
2023-01-13T16:04:11.679Z,88128.00
2023-01-13T16:05:11.698Z,88134.00
2023-01-13T16:06:11.735Z,88138.00
2023-01-13T16:07:11.717Z,88141.00
2023-01-13T16:08:11.758Z,88144.00
2023-01-13T16:09:11.801Z,88147.00
2023-01-13T16:10:11.805Z,88151.00
2023-01-13T16:11:11.807Z,88153.00
2023-01-13T16:12:11.819Z,88155.00
2023-01-13T16:13:11.858Z,88159.00
2023-01-13T16:14:11.887Z,88165.00
2023-01-13T16:15:11.891Z,88171.00
2023-01-13T16:16:11.921Z,88179.00
2023-01-13T16:17:11.948Z,88183.00
2023-01-13T16:18:11.968Z,88181.00
2023-01-13T16:19:12.046Z,88175.00
2023-01-13T16:20:12.030Z,88177.00
2023-01-13T16:21:12.045Z,88177.00
2023-01-13T16:22:14.151Z,88181.00
2023-01-13T16:23:12.052Z,88187.00
2023-01-13T16:24:12.007Z,88191.00
2023-01-13T16:25:11.988Z,88191.00
2023-01-13T16:26:11.995Z,88193.00
2023-01-13T16:27:12.026Z,88200.00
2023-01-13T16:28:12.048Z,88212.00
2023-01-13T16:29:12.091Z,88222.00
2023-01-13T16:30:12.106Z,88228.00
2023-01-13T16:31:12.160Z,88224.00
2023-01-13T16:32:12.170Z,88220.00
2023-01-13T16:33:12.186Z,88224.00
2023-01-13T16:34:12.217Z,88226.00
2023-01-13T16:35:12.243Z,88232.00
2023-01-13T16:36:12.956Z,88239.00
2023-01-13T16:37:12.235Z,88243.00
2023-01-13T16:38:12.200Z,88245.00
2023-01-13T16:39:12.188Z,88247.00
2023-01-13T16:40:12.149Z,88249.00
2023-01-13T16:41:12.105Z,88249.00
2023-01-13T16:42:12.069Z,88245.00
2023-01-13T16:43:12.032Z,88243.00
2023-01-13T16:44:12.028Z,88243.00
2023-01-13T16:45:12.056Z,88245.00
2023-01-13T16:46:12.086Z,88247.00
2023-01-13T16:47:12.125Z,88253.00
2023-01-13T16:48:12.149Z,88256.00
2023-01-13T16:49:12.189Z,88256.00
2023-01-13T16:50:12.223Z,88260.00
2023-01-13T16:51:12.261Z,88260.00
2023-01-13T16:52:12.292Z,88262.00
2023-01-13T16:53:12.307Z,88266.00
2023-01-13T16:54:12.344Z,88268.00
2023-01-13T16:55:12.359Z,88270.00
2023-01-13T16:56:12.428Z,88274.00
2023-01-13T16:57:12.406Z,88278.00
2023-01-13T16:58:12.443Z,88280.00
2023-01-13T16:59:12.491Z,88282.00
2023-01-13T17:00:12.528Z,88282.00
2023-01-13T17:01:12.624Z,88284.00
2023-01-13T17:02:12.562Z,88286.00
2023-01-13T17:03:12.633Z,88288.00
2023-01-13T17:04:12.621Z,88290.00
2023-01-13T17:05:12.690Z,88290.00
2023-01-13T17:06:12.679Z,88292.00
2023-01-13T17:07:12.708Z,88292.00
2023-01-13T17:08:12.753Z,88292.00
2023-01-13T17:09:12.763Z,88294.00
2023-01-13T17:10:12.773Z,88294.00
2023-01-13T17:11:12.831Z,88294.00
2023-01-13T17:12:12.813Z,88296.00
2023-01-13T17:13:16.433Z,88296.00
2023-01-13T17:14:18.581Z,88298.00
2023-01-13T17:16:12.788Z,88300.00
2023-01-13T17:17:12.743Z,88303.00
2023-01-13T17:18:12.704Z,88305.00
2023-01-13T17:19:12.657Z,88307.00
2023-01-13T17:20:12.629Z,88311.00
2023-01-13T17:21:12.589Z,88311.00
2023-01-13T17:22:12.568Z,88317.00
2023-01-13T17:23:12.577Z,88313.00
2023-01-13T17:24:12.515Z,88311.00
2023-01-13T17:25:12.490Z,88315.00
2023-01-13T17:26:12.422Z,88317.00
2023-01-13T17:27:12.401Z,88319.00
2023-01-13T17:28:12.390Z,88319.00
2023-01-13T17:29:12.330Z,88319.00
2023-01-13T17:30:12.289Z,88321.00
2023-01-13T17:31:12.281Z,88319.00
2023-01-13T17:32:12.230Z,88321.00
2023-01-13T17:33:12.196Z,88323.00
2023-01-13T17:34:12.185Z,88325.00
2023-01-13T17:35:12.132Z,88327.00
2023-01-13T17:36:12.077Z,88331.00
2023-01-13T17:37:12.069Z,88329.00
2023-01-13T17:38:12.026Z,88331.00
2023-01-13T17:39:11.996Z,88331.00
2023-01-13T17:40:12.001Z,88337.00
2023-01-13T17:41:11.943Z,88337.00
2023-01-13T17:42:11.902Z,88343.00
2023-01-13T17:43:11.865Z,88347.00
2023-01-13T17:44:11.833Z,88339.00
2023-01-13T17:45:11.797Z,88347.00
2023-01-13T17:46:11.805Z,88347.00
2023-01-13T17:47:11.705Z,88347.00
2023-01-13T17:48:11.672Z,88351.00
2023-01-13T17:49:11.651Z,88355.00
2023-01-13T17:50:11.601Z,88358.00
2023-01-13T17:51:11.588Z,88358.00
2023-01-13T17:52:11.567Z,88358.00
2023-01-13T17:53:11.506Z,88356.00
2023-01-13T17:54:11.463Z,88356.00
2023-01-13T17:55:11.427Z,88351.00
2023-01-13T17:56:11.392Z,88351.00
2023-01-13T17:57:11.367Z,88355.00
2023-01-13T17:58:11.372Z,88355.00
2023-01-13T17:59:11.286Z,88360.00
2023-01-13T18:00:11.249Z,88358.00
2023-01-13T18:01:11.363Z,88353.00
2023-01-13T18:02:11.343Z,88353.00
2023-01-13T18:03:11.163Z,88355.00
2023-01-13T18:04:11.129Z,88355.00
2023-01-13T18:05:11.123Z,88362.00
2023-01-13T18:06:11.076Z,88366.00
2023-01-13T18:07:11.078Z,88372.00
2023-01-13T18:08:11.020Z,88376.00
2023-01-13T18:09:10.986Z,88376.00
2023-01-13T18:10:10.926Z,88376.00
2023-01-13T18:11:10.913Z,88376.00
2023-01-13T18:12:10.873Z,88376.00
2023-01-13T18:13:10.839Z,88376.00
2023-01-13T18:14:10.801Z,88374.00
2023-01-13T18:15:10.820Z,88374.00
2023-01-13T18:16:10.772Z,88376.00
2023-01-13T18:17:10.711Z,88372.00
2023-01-13T18:18:10.704Z,88374.00
2023-01-13T18:19:10.649Z,88378.00
2023-01-13T18:20:10.632Z,88380.00
2023-01-13T18:21:10.613Z,88384.00
2023-01-13T18:22:10.565Z,88386.00
2023-01-13T18:23:10.543Z,88390.00
2023-01-13T18:24:10.500Z,88390.00
2023-01-13T18:25:10.470Z,88390.00
2023-01-13T18:26:10.436Z,88392.00
2023-01-13T18:27:10.433Z,88390.00
2023-01-13T18:28:10.381Z,88390.00
2023-01-13T18:29:10.351Z,88388.00
2023-01-13T18:30:10.307Z,88388.00
2023-01-13T18:31:10.313Z,88384.00
2023-01-13T18:32:10.257Z,88382.00
2023-01-13T18:33:10.215Z,88382.00
2023-01-13T18:34:10.174Z,88384.00
2023-01-13T18:35:10.160Z,88384.00
2023-01-13T18:36:10.094Z,88384.00
2023-01-13T18:37:10.093Z,88382.00
2023-01-13T18:38:10.038Z,88384.00
2023-01-13T18:39:10.023Z,88384.00
2023-01-13T18:40:09.999Z,88386.00
2023-01-13T18:41:09.950Z,88386.00
2023-01-13T18:42:09.930Z,88388.00
2023-01-13T18:43:09.880Z,88390.00
2023-01-13T18:44:09.845Z,88394.00
2023-01-13T18:45:10.630Z,88394.00
2023-01-13T18:46:09.826Z,88394.00
2023-01-13T18:47:09.783Z,88392.00
2023-01-13T18:48:09.734Z,88390.00
2023-01-13T18:49:09.726Z,88388.00
2023-01-13T18:50:09.701Z,88388.00
2023-01-13T18:51:09.648Z,88392.00
2023-01-13T18:52:09.613Z,88394.00
2023-01-13T18:53:09.613Z,88394.00
2023-01-13T18:55:09.536Z,88392.00
2023-01-13T18:56:09.513Z,88392.00
2023-01-13T18:57:09.489Z,88390.00
2023-01-13T18:58:09.458Z,88394.00
2023-01-13T18:59:09.418Z,88396.00
2023-01-13T19:00:09.416Z,88398.00
2023-01-13T19:01:09.431Z,88402.00
2023-01-13T19:02:09.391Z,88402.00
2023-01-13T19:03:09.315Z,88402.00
2023-01-13T19:04:09.256Z,88404.00
2023-01-13T19:05:09.256Z,88404.00
2023-01-13T19:06:09.190Z,88404.00
2023-01-13T19:07:09.207Z,88402.00
2023-01-13T19:08:09.160Z,88400.00
2023-01-13T19:09:09.117Z,88394.00
2023-01-13T19:15:08.949Z,88388.00
2023-01-13T19:16:08.952Z,88390.00
